createdAt,value
2019-01-03T00:00:16.506Z,87.2
2019-01-03T00:01:17.865Z,87.8
2019-01-03T00:02:19.223Z,87.5
2019-01-03T00:03:20.585Z,87.5
2019-01-03T00:04:21.948Z,87.5
2019-01-03T00:05:23.312Z,87.7
2019-01-03T00:06:24.676Z,87.7
2019-01-03T00:07:26.033Z,87.9
2019-01-03T00:08:27.391Z,88.1
2019-01-03T00:09:28.749Z,88.2
2019-01-03T00:10:30.132Z,88.7
2019-01-03T00:11:31.490Z,88.5
2019-01-03T00:12:32.858Z,88.1
2019-01-03T00:13:34.218Z,88.7
2019-01-03T00:14:35.579Z,89.1
2019-01-03T00:15:36.940Z,89.3
2019-01-03T00:16:38.305Z,89.3
2019-01-03T00:17:41.870Z,89.7
2019-01-03T00:18:43.235Z,90.4
2019-01-03T00:19:44.593Z,90.4
2019-01-03T00:20:45.957Z,90.5
2019-01-03T00:21:47.316Z,90.6
2019-01-03T00:22:48.694Z,90.5
2019-01-03T00:23:50.053Z,90.9
2019-01-03T00:24:51.414Z,91.0
2019-01-03T00:25:52.773Z,91.0
2019-01-03T00:26:54.138Z,90.9
2019-01-03T00:27:55.498Z,90.8
2019-01-03T00:28:56.858Z,91.5
2019-01-03T00:29:58.228Z,91.7
2019-01-03T00:30:59.583Z,91.8
2019-01-03T00:32:00.969Z,91.4
2019-01-03T00:33:02.330Z,91.6
2019-01-03T00:34:03.691Z,91.5
2019-01-03T00:35:05.069Z,92.1
2019-01-03T00:36:06.429Z,92.5
2019-01-03T00:37:07.834Z,92.1
2019-01-03T00:38:09.199Z,92.3
2019-01-03T00:39:10.559Z,92.1
2019-01-03T00:40:11.928Z,92.3
2019-01-03T00:41:13.335Z,92.5
2019-01-03T00:42:14.696Z,92.6
2019-01-03T00:43:16.060Z,92.9
2019-01-03T00:44:17.414Z,93.0
2019-01-03T00:45:18.773Z,93.3
2019-01-03T00:46:20.134Z,93.6
2019-01-03T00:47:21.515Z,93.9
2019-01-03T00:48:22.884Z,93.7
2019-01-03T00:49:24.247Z,93.7
2019-01-03T00:50:25.623Z,93.9
2019-01-03T00:51:26.969Z,94.2
2019-01-03T00:52:28.369Z,94.1
2019-01-03T00:53:29.699Z,94.5
2019-01-03T00:54:31.050Z,94.2
2019-01-03T00:55:32.414Z,94.8
2019-01-03T00:56:33.778Z,94.6
2019-01-03T00:57:35.158Z,94.8
2019-01-03T00:58:36.516Z,94.8
2019-01-03T00:59:37.891Z,94.6
2019-01-03T01:00:39.253Z,94.6
2019-01-03T01:01:40.615Z,95.1
2019-01-03T01:02:41.997Z,94.8
2019-01-03T01:03:43.351Z,95.7
2019-01-03T01:04:44.713Z,96.1
2019-01-03T01:05:46.070Z,95.6
2019-01-03T01:06:47.429Z,95.3
2019-01-03T01:07:48.788Z,95.5
2019-01-03T01:08:50.149Z,95.9
2019-01-03T01:09:51.513Z,95.6
2019-01-03T01:10:52.870Z,95.9
2019-01-03T01:11:54.236Z,95.9
2019-01-03T01:12:55.595Z,95.4
2019-01-03T01:13:56.953Z,95.8
2019-01-03T01:14:58.337Z,95.5
2019-01-03T01:15:59.698Z,95.7
2019-01-03T01:17:01.061Z,95.9
2019-01-03T01:18:02.422Z,95.9
2019-01-03T01:19:03.778Z,95.6
2019-01-03T01:20:05.192Z,95.5
2019-01-03T01:21:06.551Z,95.1
2019-01-03T01:22:07.916Z,95.3
2019-01-03T01:23:09.274Z,95.8
2019-01-03T01:24:10.639Z,95.6
2019-01-03T01:25:12.001Z,95.6
2019-01-03T01:26:13.367Z,96.1
2019-01-03T01:27:14.726Z,95.9
2019-01-03T01:28:16.088Z,96.2
2019-01-03T01:29:17.446Z,96.4
2019-01-03T01:30:18.808Z,96.4
2019-01-03T01:31:20.170Z,96.8
2019-01-03T01:32:21.533Z,96.4
2019-01-03T01:33:22.898Z,97.2
2019-01-03T01:34:24.253Z,97.1
2019-01-03T01:35:25.638Z,97.4
2019-01-03T01:36:27.014Z,97.7
2019-01-03T01:37:28.379Z,97.7
2019-01-03T01:38:29.783Z,97.7
2019-01-03T01:39:31.146Z,97.7
2019-01-03T01:40:32.528Z,97.7
2019-01-03T01:41:33.891Z,97.5
2019-01-03T01:42:35.284Z,98.0
2019-01-03T01:43:36.658Z,98.2
2019-01-03T01:44:38.019Z,98.3
2019-01-03T01:45:39.380Z,98.1
2019-01-03T01:46:40.744Z,98.3
2019-01-03T01:47:42.129Z,98.3
2019-01-03T01:48:43.486Z,98.0
2019-01-03T01:49:44.846Z,98.2
2019-01-03T01:50:46.210Z,98.2
2019-01-03T01:51:47.571Z,98.2
2019-01-03T01:52:48.947Z,99.1
2019-01-03T01:53:50.309Z,99.1
2019-01-03T01:54:51.669Z,98.8
2019-01-03T01:55:53.032Z,98.8
2019-01-03T01:56:54.397Z,98.7
2019-01-03T01:57:55.760Z,98.8
2019-01-03T01:58:57.120Z,99.1
2019-01-03T01:59:58.533Z,98.9
2019-01-03T02:00:59.907Z,98.9
2019-01-03T02:02:01.267Z,98.4
2019-01-03T02:03:02.654Z,98.2
2019-01-03T02:04:03.991Z,98.4
2019-01-03T02:05:05.355Z,98.7
2019-01-03T02:06:06.739Z,98.3
2019-01-03T02:07:08.101Z,98.6
2019-01-03T02:08:09.474Z,99.2
2019-01-03T02:09:10.868Z,99.1
2019-01-03T02:10:12.207Z,98.9
2019-01-03T02:11:13.566Z,99.1
2019-01-03T02:12:14.932Z,99.2
2019-01-03T02:13:16.295Z,99.1
2019-01-03T02:14:17.656Z,99.2
2019-01-03T02:15:19.037Z,98.9
2019-01-03T02:16:20.395Z,98.8
2019-01-03T02:17:21.777Z,99.2
2019-01-03T02:18:23.135Z,99.0
2019-01-03T02:19:24.499Z,99.2
2019-01-03T02:20:25.860Z,98.9
2019-01-03T02:21:27.229Z,99.1
2019-01-03T02:22:28.590Z,99.2
2019-01-03T02:23:29.956Z,99.9
2019-01-03T02:24:31.314Z,99.8
2019-01-03T02:25:32.679Z,99.5
2019-01-03T02:26:34.039Z,99.5
2019-01-03T02:27:35.399Z,99.9
2019-01-03T02:28:36.762Z,100.0
2019-01-03T02:29:38.131Z,100.0
2019-01-03T02:30:39.487Z,100.0
2019-01-03T02:31:40.849Z,100.0
2019-01-03T02:32:42.234Z,100.0
2019-01-03T02:33:43.599Z,100.0
2019-01-03T02:34:44.957Z,100.0
2019-01-03T02:35:46.322Z,100.0
2019-01-03T02:36:47.684Z,100.0
2019-01-03T02:37:49.040Z,100.0
2019-01-03T02:38:50.401Z,100.0
2019-01-03T02:39:51.764Z,100.0
2019-01-03T02:40:53.130Z,100.0
2019-01-03T02:41:54.494Z,100.0
2019-01-03T02:42:55.870Z,100.0
2019-01-03T02:43:57.237Z,100.0
2019-01-03T02:44:58.618Z,100.0
2019-01-03T02:45:59.977Z,100.0
2019-01-03T02:47:01.347Z,100.0
2019-01-03T02:48:02.712Z,100.0
2019-01-03T02:49:04.065Z,100.0
2019-01-03T02:50:05.430Z,100.0
2019-01-03T02:51:06.794Z,100.0
2019-01-03T02:52:08.157Z,100.0
2019-01-03T02:53:09.535Z,100.0
2019-01-03T02:54:10.897Z,100.0
2019-01-03T02:55:12.261Z,100.0
2019-01-03T02:56:13.649Z,100.0
2019-01-03T02:57:14.984Z,100.0
2019-01-03T02:58:16.345Z,100.0
2019-01-03T02:59:17.706Z,100.0
2019-01-03T03:00:19.102Z,100.0
2019-01-03T03:01:20.483Z,100.0
2019-01-03T03:02:21.853Z,100.0
2019-01-03T03:03:23.222Z,100.0
2019-01-03T03:04:24.586Z,100.0
2019-01-03T03:05:25.948Z,100.0
2019-01-03T03:06:27.309Z,100.0
2019-01-03T03:07:28.674Z,100.0
2019-01-03T03:08:30.084Z,100.0
2019-01-03T03:09:31.403Z,100.0
2019-01-03T03:10:32.761Z,100.0
2019-01-03T03:11:34.124Z,100.0
2019-01-03T03:12:35.488Z,100.0
2019-01-03T03:13:36.850Z,100.0
2019-01-03T03:14:38.215Z,100.0
2019-01-03T03:15:39.578Z,100.0
2019-01-03T03:16:40.941Z,100.0
2019-01-03T03:17:42.525Z,100.0
2019-01-03T03:18:43.890Z,100.0
2019-01-03T03:19:45.263Z,100.0
2019-01-03T03:20:46.618Z,100.0
2019-01-03T03:21:47.983Z,100.0
2019-01-03T03:22:49.343Z,100.0
2019-01-03T03:23:50.723Z,100.0
2019-01-03T03:24:53.497Z,100.0
2019-01-03T03:25:53.429Z,100.0
2019-01-03T03:26:54.791Z,100.0
2019-01-03T03:27:56.151Z,100.0
2019-01-03T03:28:57.512Z,100.0
2019-01-03T03:29:58.873Z,100.0
2019-01-03T03:31:00.261Z,100.0
2019-01-03T03:32:01.603Z,100.0
2019-01-03T03:33:02.997Z,100.0
2019-01-03T03:34:04.354Z,100.0
2019-01-03T03:35:05.708Z,100.0
2019-01-03T03:36:07.076Z,100.0
2019-01-03T03:37:08.437Z,100.0
2019-01-03T03:38:09.798Z,100.0
2019-01-03T03:39:11.168Z,100.0
2019-01-03T03:40:12.533Z,100.0
2019-01-03T03:41:13.896Z,100.0
2019-01-03T03:42:15.272Z,100.0
2019-01-03T03:43:16.635Z,100.0
2019-01-03T03:44:18.008Z,100.0
2019-01-03T03:45:19.378Z,100.0
2019-01-03T03:46:20.778Z,100.0
2019-01-03T03:47:22.132Z,100.0
2019-01-03T03:48:23.500Z,100.0
2019-01-03T03:49:24.885Z,100.0
2019-01-03T03:50:26.236Z,100.0
2019-01-03T03:51:27.608Z,100.0
2019-01-03T03:52:28.967Z,100.0
2019-01-03T03:53:30.328Z,100.0
2019-01-03T03:54:31.693Z,100.0
2019-01-03T03:55:33.071Z,100.0
2019-01-03T03:56:34.433Z,100.0
2019-01-03T03:57:35.803Z,100.0
2019-01-03T03:58:37.168Z,100.0
2019-01-03T03:59:38.533Z,100.0
2019-01-03T04:00:39.893Z,100.0
2019-01-03T04:01:41.259Z,100.0
2019-01-03T04:02:42.616Z,100.0
2019-01-03T04:03:43.976Z,100.0
2019-01-03T04:04:45.338Z,100.0
2019-01-03T04:05:46.700Z,100.0
2019-01-03T04:06:48.068Z,100.0
2019-01-03T04:07:49.432Z,100.0
2019-01-03T04:08:50.800Z,100.0
2019-01-03T04:09:52.161Z,100.0
2019-01-03T04:10:53.522Z,100.0
2019-01-03T04:11:54.882Z,100.0
2019-01-03T04:12:56.245Z,100.0
2019-01-03T04:13:57.604Z,100.0
2019-01-03T04:14:59.004Z,100.0
2019-01-03T04:16:00.371Z,100.0
2019-01-03T04:17:01.735Z,100.0
2019-01-03T04:18:03.105Z,100.0
2019-01-03T04:19:04.465Z,100.0
2019-01-03T04:20:05.827Z,100.0
2019-01-03T04:21:07.192Z,100.0
2019-01-03T04:22:08.554Z,100.0
2019-01-03T04:23:09.918Z,100.0
2019-01-03T04:24:11.283Z,100.0
2019-01-03T04:25:12.641Z,100.0
2019-01-03T04:26:13.999Z,100.0
2019-01-03T04:27:15.360Z,100.0
2019-01-03T04:28:16.725Z,100.0
2019-01-03T04:29:18.087Z,100.0
2019-01-03T04:30:19.450Z,100.0
2019-01-03T04:31:20.811Z,100.0
2019-01-03T04:32:22.171Z,100.0
2019-01-03T04:33:23.543Z,100.0
2019-01-03T04:34:24.904Z,100.0
2019-01-03T04:35:26.263Z,100.0
2019-01-03T04:36:27.624Z,100.0
2019-01-03T04:37:28.993Z,100.0
2019-01-03T04:38:30.359Z,100.0
2019-01-03T04:39:31.722Z,100.0
2019-01-03T04:40:33.083Z,100.0
2019-01-03T04:41:34.447Z,100.0
2019-01-03T04:42:35.802Z,100.0
2019-01-03T04:43:37.167Z,100.0
2019-01-03T04:44:38.530Z,100.0
2019-01-03T04:45:39.894Z,100.0
2019-01-03T04:46:41.257Z,100.0
2019-01-03T04:47:42.626Z,100.0
2019-01-03T04:48:43.980Z,100.0
2019-01-03T04:49:45.343Z,100.0
2019-01-03T04:50:46.707Z,100.0
2019-01-03T04:51:48.084Z,100.0
2019-01-03T04:52:49.457Z,100.0
2019-01-03T04:53:50.816Z,100.0
2019-01-03T04:54:52.207Z,100.0
2019-01-03T04:55:53.564Z,100.0
2019-01-03T04:56:54.925Z,100.0
2019-01-03T04:57:56.289Z,100.0
2019-01-03T04:58:57.651Z,100.0
2019-01-03T04:59:59.034Z,100.0
2019-01-03T05:01:00.399Z,100.0
2019-01-03T05:02:01.761Z,100.0
2019-01-03T05:03:03.119Z,100.0
2019-01-03T05:04:04.487Z,100.0
2019-01-03T05:05:05.844Z,100.0
2019-01-03T05:06:07.226Z,100.0
2019-01-03T05:07:08.593Z,100.0
2019-01-03T05:08:09.988Z,100.0
2019-01-03T05:09:11.355Z,100.0
2019-01-03T05:10:12.733Z,100.0
2019-01-03T05:11:14.095Z,100.0
2019-01-03T05:12:15.459Z,100.0
2019-01-03T05:13:16.822Z,100.0
2019-01-03T05:14:18.184Z,100.0
2019-01-03T05:15:19.557Z,100.0
2019-01-03T05:16:20.940Z,100.0
2019-01-03T05:17:22.322Z,100.0
2019-01-03T05:18:23.714Z,100.0
2019-01-03T05:19:25.045Z,100.0
2019-01-03T05:20:26.412Z,100.0
2019-01-03T05:21:27.796Z,100.0
2019-01-03T05:22:29.156Z,100.0
2019-01-03T05:23:30.517Z,100.0
2019-01-03T05:24:31.878Z,100.0
2019-01-03T05:25:33.250Z,100.0
2019-01-03T05:26:34.602Z,100.0
2019-01-03T05:27:35.967Z,100.0
2019-01-03T05:28:37.329Z,100.0
2019-01-03T05:29:38.696Z,100.0
2019-01-03T05:30:40.067Z,100.0
2019-01-03T05:31:41.471Z,100.0
2019-01-03T05:32:42.831Z,100.0
2019-01-03T05:33:44.194Z,100.0
2019-01-03T05:34:45.557Z,100.0
2019-01-03T05:35:46.929Z,100.0
2019-01-03T05:36:48.293Z,100.0
2019-01-03T05:37:49.657Z,100.0
2019-01-03T05:38:51.018Z,100.0
2019-01-03T05:39:52.385Z,100.0
2019-01-03T05:40:53.747Z,100.0
2019-01-03T05:41:55.108Z,100.0
2019-01-03T05:42:56.475Z,100.0
2019-01-03T05:43:57.833Z,100.0
2019-01-03T05:44:59.194Z,100.0
2019-01-03T05:46:00.559Z,100.0
2019-01-03T05:47:01.921Z,100.0
2019-01-03T05:48:03.298Z,100.0
2019-01-03T05:49:04.688Z,100.0
2019-01-03T05:50:06.028Z,100.0
2019-01-03T05:51:07.389Z,100.0
2019-01-03T05:52:08.773Z,100.0
2019-01-03T05:53:10.148Z,100.0
2019-01-03T05:54:11.500Z,100.0
2019-01-03T05:55:12.862Z,100.0
2019-01-03T05:56:14.227Z,100.0
2019-01-03T05:57:15.589Z,100.0
2019-01-03T05:58:16.951Z,100.0
2019-01-03T05:59:18.309Z,100.0
2019-01-03T06:00:19.671Z,100.0
2019-01-03T06:01:21.035Z,100.0
2019-01-03T06:02:22.400Z,100.0
2019-01-03T06:03:23.764Z,100.0
2019-01-03T06:04:25.134Z,100.0
2019-01-03T06:05:26.491Z,100.0
2019-01-03T06:06:27.854Z,100.0
2019-01-03T06:07:29.215Z,100.0
2019-01-03T06:08:30.589Z,100.0
2019-01-03T06:09:31.949Z,100.0
2019-01-03T06:10:33.317Z,100.0
2019-01-03T06:11:34.686Z,100.0
2019-01-03T06:12:36.049Z,100.0
2019-01-03T06:13:37.410Z,100.0
2019-01-03T06:14:38.770Z,100.0
2019-01-03T06:15:40.151Z,100.0
2019-01-03T06:16:41.532Z,100.0
2019-01-03T06:17:42.916Z,100.0
2019-01-03T06:18:44.279Z,100.0
2019-01-03T06:19:45.653Z,100.0
2019-01-03T06:20:47.016Z,100.0
2019-01-03T06:21:48.380Z,100.0
2019-01-03T06:22:49.756Z,100.0
2019-01-03T06:23:51.168Z,100.0
2019-01-03T06:24:52.556Z,100.0
2019-01-03T06:25:53.926Z,100.0
2019-01-03T06:26:55.288Z,100.0
2019-01-03T06:27:56.654Z,100.0
2019-01-03T06:28:58.016Z,100.0
2019-01-03T06:29:59.407Z,100.0
2019-01-03T06:31:00.867Z,100.0
2019-01-03T06:32:02.234Z,100.0
2019-01-03T06:33:03.576Z,100.0
2019-01-03T06:34:04.935Z,100.0
2019-01-03T06:35:06.319Z,100.0
2019-01-03T06:36:07.727Z,100.0
2019-01-03T06:37:09.125Z,100.0
2019-01-03T06:38:10.517Z,100.0
2019-01-03T06:39:11.953Z,100.0
2019-01-03T06:40:13.315Z,100.0
2019-01-03T06:41:14.740Z,100.0
2019-01-03T06:42:16.227Z,100.0
2019-01-03T06:43:17.636Z,100.0
2019-01-03T06:44:19.396Z,100.0
2019-01-03T06:45:20.820Z,100.0
2019-01-03T06:46:22.218Z,100.0
2019-01-03T06:47:23.598Z,100.0
2019-01-03T06:48:24.991Z,100.0
2019-01-03T06:49:26.352Z,100.0
2019-01-03T06:50:27.753Z,100.0
2019-01-03T06:51:29.123Z,100.0
2019-01-03T06:52:30.513Z,100.0
2019-01-03T06:53:31.929Z,100.0
2019-01-03T06:54:33.472Z,100.0
2019-01-03T06:55:34.844Z,100.0
2019-01-03T06:56:36.213Z,100.0
2019-01-03T06:57:37.595Z,100.0
2019-01-03T06:58:38.964Z,100.0
2019-01-03T06:59:40.343Z,100.0
2019-01-03T07:00:41.736Z,100.0
2019-01-03T07:01:43.099Z,100.0
2019-01-03T07:02:44.464Z,100.0
2019-01-03T07:03:45.818Z,100.0
2019-01-03T07:04:47.215Z,100.0
2019-01-03T07:05:48.584Z,100.0
2019-01-03T07:06:49.950Z,100.0
2019-01-03T07:07:51.324Z,100.0
2019-01-03T07:08:52.687Z,100.0
2019-01-03T07:09:54.048Z,100.0
2019-01-03T07:10:55.433Z,100.0
2019-01-03T07:11:56.789Z,100.0
2019-01-03T07:12:58.156Z,100.0
2019-01-03T07:13:59.541Z,100.0
2019-01-03T07:15:00.907Z,100.0
2019-01-03T07:16:02.279Z,100.0
2019-01-03T07:17:03.638Z,100.0
2019-01-03T07:18:05.001Z,100.0
2019-01-03T07:19:06.372Z,100.0
2019-01-03T07:20:07.742Z,100.0
2019-01-03T07:21:09.144Z,100.0
2019-01-03T07:22:10.528Z,100.0
2019-01-03T07:23:11.909Z,100.0
2019-01-03T07:24:13.320Z,100.0
2019-01-03T07:25:14.703Z,100.0
2019-01-03T07:26:16.075Z,100.0
2019-01-03T07:27:17.438Z,100.0
2019-01-03T07:28:18.796Z,100.0
2019-01-03T07:29:20.172Z,100.0
2019-01-03T07:30:21.566Z,100.0
2019-01-03T07:31:22.934Z,100.0
2019-01-03T07:32:24.303Z,100.0
2019-01-03T07:33:25.663Z,100.0
2019-01-03T07:34:27.031Z,100.0
2019-01-03T07:35:28.399Z,100.0
2019-01-03T07:36:29.756Z,100.0
2019-01-03T07:37:31.134Z,100.0
2019-01-03T07:38:32.506Z,100.0
2019-01-03T07:39:33.879Z,100.0
2019-01-03T07:40:35.251Z,100.0
2019-01-03T07:41:36.622Z,100.0
2019-01-03T07:42:37.992Z,100.0
2019-01-03T07:43:39.384Z,100.0
2019-01-03T07:44:40.767Z,100.0
2019-01-03T07:45:42.125Z,100.0
2019-01-03T07:46:43.499Z,100.0
2019-01-03T07:47:44.876Z,100.0
2019-01-03T07:48:46.240Z,100.0
2019-01-03T07:49:47.605Z,100.0
2019-01-03T07:50:48.994Z,100.0
2019-01-03T07:51:50.374Z,100.0
2019-01-03T07:52:51.739Z,100.0
2019-01-03T07:53:53.105Z,100.0
2019-01-03T07:54:54.472Z,100.0
2019-01-03T07:55:55.848Z,100.0
2019-01-03T07:56:57.208Z,100.0
2019-01-03T07:57:58.583Z,100.0
2019-01-03T07:58:59.956Z,100.0
2019-01-03T08:00:01.321Z,100.0
2019-01-03T08:01:02.706Z,100.0
2019-01-03T08:02:04.062Z,100.0
2019-01-03T08:03:05.436Z,100.0
2019-01-03T08:04:06.805Z,100.0
2019-01-03T08:05:08.179Z,100.0
2019-01-03T08:06:09.544Z,100.0
2019-01-03T08:07:10.911Z,100.0
2019-01-03T08:08:12.288Z,100.0
2019-01-03T08:09:13.650Z,100.0
2019-01-03T08:10:15.020Z,100.0
2019-01-03T08:11:16.398Z,100.0
2019-01-03T08:12:17.767Z,100.0
2019-01-03T08:13:19.136Z,100.0
2019-01-03T08:14:20.495Z,100.0
2019-01-03T08:15:21.866Z,100.0
2019-01-03T08:16:23.243Z,100.0
2019-01-03T08:17:24.610Z,100.0
2019-01-03T08:18:26.012Z,100.0
2019-01-03T08:19:27.350Z,100.0
2019-01-03T08:20:28.733Z,100.0
2019-01-03T08:21:30.109Z,100.0
2019-01-03T08:22:31.474Z,100.0
2019-01-03T08:23:32.847Z,100.0
2019-01-03T08:24:34.213Z,100.0
2019-01-03T08:25:35.600Z,100.0
2019-01-03T08:26:36.970Z,100.0
2019-01-03T08:27:38.333Z,100.0
2019-01-03T08:28:39.711Z,100.0
2019-01-03T08:29:41.062Z,100.0
2019-01-03T08:30:42.435Z,100.0
2019-01-03T08:31:43.811Z,100.0
2019-01-03T08:32:45.176Z,100.0
2019-01-03T08:33:46.552Z,100.0
2019-01-03T08:34:47.923Z,100.0
2019-01-03T08:35:49.287Z,100.0
2019-01-03T08:36:50.672Z,100.0
2019-01-03T08:37:52.046Z,100.0
2019-01-03T08:38:53.416Z,100.0
2019-01-03T08:39:54.780Z,100.0
2019-01-03T08:40:56.150Z,100.0
2019-01-03T08:41:57.518Z,100.0
2019-01-03T08:42:58.888Z,100.0
2019-01-03T08:44:00.263Z,100.0
2019-01-03T08:45:01.637Z,100.0
2019-01-03T08:46:03.019Z,100.0
2019-01-03T08:47:04.385Z,100.0
2019-01-03T08:48:05.765Z,100.0
2019-01-03T08:49:07.138Z,100.0
2019-01-03T08:50:08.529Z,100.0
2019-01-03T08:51:09.902Z,100.0
2019-01-03T08:52:11.273Z,100.0
2019-01-03T08:53:12.657Z,100.0
2019-01-03T08:54:14.045Z,100.0
2019-01-03T08:55:15.415Z,100.0
2019-01-03T08:56:16.780Z,100.0
2019-01-03T08:57:18.149Z,100.0
2019-01-03T08:58:19.520Z,100.0
2019-01-03T08:59:20.909Z,100.0
2019-01-03T09:00:22.265Z,100.0
2019-01-03T09:01:23.638Z,100.0
2019-01-03T09:02:25.011Z,100.0
2019-01-03T09:03:26.381Z,100.0
2019-01-03T09:04:27.747Z,100.0
2019-01-03T09:05:29.130Z,100.0
2019-01-03T09:06:30.497Z,100.0
2019-01-03T09:07:31.871Z,100.0
2019-01-03T09:08:33.244Z,100.0
2019-01-03T09:09:34.618Z,100.0
2019-01-03T09:10:35.989Z,100.0
2019-01-03T09:11:37.345Z,100.0
2019-01-03T09:12:38.740Z,100.0
2019-01-03T09:13:40.106Z,100.0
2019-01-03T09:14:41.488Z,100.0
2019-01-03T09:15:42.855Z,100.0
2019-01-03T09:16:44.238Z,100.0
2019-01-03T09:17:45.610Z,100.0
2019-01-03T09:18:46.978Z,100.0
2019-01-03T09:19:48.371Z,100.0
2019-01-03T09:20:49.735Z,100.0
2019-01-03T09:21:51.104Z,100.0
2019-01-03T09:22:52.476Z,100.0
2019-01-03T09:23:53.849Z,100.0
2019-01-03T09:24:55.242Z,100.0
2019-01-03T09:25:56.617Z,100.0
2019-01-03T09:26:57.983Z,100.0
2019-01-03T09:27:59.346Z,100.0
2019-01-03T09:29:00.738Z,100.0
2019-01-03T09:30:02.093Z,100.0
2019-01-03T09:31:03.463Z,100.0
2019-01-03T09:32:04.885Z,100.0
2019-01-03T09:33:06.320Z,100.0
2019-01-03T09:34:07.809Z,100.0
2019-01-03T09:35:09.235Z,100.0
2019-01-03T09:36:10.665Z,100.0
2019-01-03T09:37:12.135Z,100.0
2019-01-03T09:38:13.565Z,100.0
2019-01-03T09:39:14.987Z,100.0
2019-01-03T09:40:16.353Z,100.0
2019-01-03T09:41:17.730Z,100.0
2019-01-03T09:42:19.104Z,100.0
2019-01-03T09:43:20.470Z,100.0
2019-01-03T09:44:21.886Z,100.0
2019-01-03T09:45:23.262Z,100.0
2019-01-03T09:46:24.642Z,100.0
2019-01-03T09:47:26.046Z,100.0
2019-01-03T09:48:27.451Z,100.0
2019-01-03T09:49:28.869Z,100.0
2019-01-03T09:50:30.269Z,100.0
2019-01-03T09:51:31.720Z,100.0
2019-01-03T09:52:33.109Z,100.0
2019-01-03T09:53:34.486Z,100.0
2019-01-03T09:54:35.964Z,100.0
2019-01-03T09:55:37.430Z,100.0
2019-01-03T09:56:38.848Z,100.0
2019-01-03T09:57:40.296Z,100.0
2019-01-03T09:58:41.797Z,100.0
2019-01-03T09:59:43.123Z,100.0
2019-01-03T10:00:44.509Z,100.0
2019-01-03T10:01:45.979Z,100.0
2019-01-03T10:02:47.393Z,100.0
2019-01-03T10:03:48.835Z,100.0
2019-01-03T10:04:50.296Z,100.0
2019-01-03T10:05:51.705Z,100.0
2019-01-03T10:06:53.166Z,100.0
2019-01-03T10:07:54.613Z,100.0
2019-01-03T10:08:56.008Z,100.0
2019-01-03T10:09:57.496Z,100.0
2019-01-03T10:10:58.986Z,100.0
2019-01-03T10:12:00.362Z,100.0
2019-01-03T10:13:01.752Z,100.0
2019-01-03T10:14:03.157Z,100.0
2019-01-03T10:15:04.534Z,100.0
2019-01-03T10:16:05.991Z,100.0
2019-01-03T10:17:07.496Z,100.0
2019-01-03T10:18:08.909Z,100.0
2019-01-03T10:19:10.366Z,100.0
2019-01-03T10:20:11.826Z,100.0
2019-01-03T10:21:13.235Z,100.0
2019-01-03T10:22:14.677Z,100.0
2019-01-03T10:23:16.105Z,100.0
2019-01-03T10:24:17.501Z,100.0
2019-01-03T10:25:18.969Z,100.0
2019-01-03T10:26:20.370Z,100.0
2019-01-03T10:27:21.798Z,100.0
2019-01-03T10:28:23.247Z,100.0
2019-01-03T10:29:24.690Z,100.0
2019-01-03T10:30:26.113Z,100.0
2019-01-03T10:31:27.561Z,100.0
2019-01-03T10:32:29.042Z,100.0
2019-01-03T10:33:30.460Z,100.0
2019-01-03T10:34:31.889Z,100.0
2019-01-03T10:35:33.323Z,100.0
2019-01-03T10:36:34.790Z,100.0
2019-01-03T10:37:36.152Z,100.0
2019-01-03T10:38:37.636Z,100.0
2019-01-03T10:39:39.023Z,100.0
2019-01-03T10:40:40.434Z,100.0
2019-01-03T10:41:41.815Z,100.0
2019-01-03T10:42:43.189Z,100.0
2019-01-03T10:43:44.560Z,100.0
2019-01-03T10:44:45.940Z,100.0
2019-01-03T10:45:47.341Z,100.0
2019-01-03T10:46:48.726Z,100.0
2019-01-03T10:47:50.101Z,100.0
2019-01-03T10:48:51.470Z,100.0
2019-01-03T10:49:52.899Z,100.0
2019-01-03T10:50:54.271Z,100.0
2019-01-03T10:51:55.647Z,100.0
2019-01-03T10:52:57.013Z,100.0
2019-01-03T10:53:58.386Z,100.0
2019-01-03T10:54:59.762Z,100.0
2019-01-03T10:56:01.129Z,100.0
2019-01-03T10:57:02.498Z,100.0
2019-01-03T10:58:03.870Z,100.0
2019-01-03T10:59:05.247Z,100.0
2019-01-03T11:00:06.608Z,100.0
2019-01-03T11:01:07.998Z,100.0
2019-01-03T11:02:09.346Z,100.0
2019-01-03T11:03:10.716Z,100.0
2019-01-03T11:04:12.089Z,100.0
2019-01-03T11:05:13.455Z,100.0
2019-01-03T11:06:14.824Z,100.0
2019-01-03T11:07:16.202Z,100.0
2019-01-03T11:08:17.565Z,100.0
2019-01-03T11:09:18.939Z,100.0
2019-01-03T11:10:20.315Z,100.0
2019-01-03T11:11:21.684Z,100.0
2019-01-03T11:12:23.054Z,100.0
2019-01-03T11:13:24.420Z,100.0
2019-01-03T11:14:25.791Z,100.0
2019-01-03T11:15:27.158Z,100.0
2019-01-03T11:16:28.538Z,100.0
2019-01-03T11:17:29.913Z,100.0
2019-01-03T11:18:31.281Z,100.0
2019-01-03T11:19:32.653Z,100.0
2019-01-03T11:20:34.023Z,100.0
2019-01-03T11:21:35.389Z,100.0
2019-01-03T11:22:36.758Z,100.0
2019-01-03T11:23:38.132Z,100.0
2019-01-03T11:24:39.500Z,100.0
2019-01-03T11:25:40.871Z,100.0
2019-01-03T11:26:42.249Z,100.0
2019-01-03T11:27:43.614Z,100.0
2019-01-03T11:28:44.984Z,100.0
2019-01-03T11:29:46.355Z,100.0
2019-01-03T11:30:47.723Z,100.0
2019-01-03T11:31:49.095Z,100.0
2019-01-03T11:32:50.466Z,100.0
2019-01-03T11:33:51.838Z,100.0
2019-01-03T11:34:53.207Z,100.0
2019-01-03T11:35:54.576Z,100.0
2019-01-03T11:36:55.947Z,100.0
2019-01-03T11:37:57.319Z,100.0
2019-01-03T11:38:58.689Z,100.0
2019-01-03T11:40:00.099Z,100.0
2019-01-03T11:41:01.396Z,100.0
2019-01-03T11:42:02.764Z,100.0
2019-01-03T11:43:04.133Z,100.0
2019-01-03T11:44:05.506Z,100.0
2019-01-03T11:45:06.874Z,100.0
2019-01-03T11:46:08.244Z,100.0
2019-01-03T11:47:09.617Z,100.0
2019-01-03T11:48:10.986Z,100.0
2019-01-03T11:49:12.355Z,100.0
2019-01-03T11:50:13.726Z,100.0
2019-01-03T11:51:15.097Z,100.0
2019-01-03T11:52:16.468Z,100.0
2019-01-03T11:53:17.831Z,100.0
2019-01-03T11:54:19.209Z,100.0
2019-01-03T11:55:20.582Z,100.0
2019-01-03T11:56:21.952Z,100.0
2019-01-03T11:57:23.321Z,100.0
2019-01-03T11:58:24.694Z,100.0
2019-01-03T11:59:26.063Z,100.0
2019-01-03T12:00:27.435Z,100.0
2019-01-03T12:01:28.808Z,100.0
2019-01-03T12:02:30.175Z,100.0
2019-01-03T12:03:31.549Z,100.0
2019-01-03T12:04:32.917Z,100.0
2019-01-03T12:05:34.285Z,100.0
2019-01-03T12:06:35.658Z,100.0
2019-01-03T12:07:37.031Z,100.0
2019-01-03T12:08:38.397Z,100.0
2019-01-03T12:09:39.769Z,100.0
2019-01-03T12:10:41.137Z,100.0
2019-01-03T12:11:42.512Z,100.0
2019-01-03T12:12:43.878Z,100.0
2019-01-03T12:13:45.246Z,100.0
2019-01-03T12:14:46.620Z,100.0
2019-01-03T12:15:47.991Z,100.0
2019-01-03T12:16:49.360Z,100.0
2019-01-03T12:17:50.738Z,100.0
2019-01-03T12:18:52.120Z,100.0
2019-01-03T12:19:53.477Z,100.0
2019-01-03T12:20:54.853Z,100.0
2019-01-03T12:21:56.227Z,100.0
2019-01-03T12:22:57.607Z,100.0
2019-01-03T12:23:58.996Z,100.0
2019-01-03T12:25:00.389Z,100.0
2019-01-03T12:26:01.792Z,100.0
2019-01-03T12:27:03.142Z,100.0
2019-01-03T12:28:04.515Z,100.0
2019-01-03T12:29:05.881Z,100.0
2019-01-03T12:30:07.268Z,100.0
2019-01-03T12:31:08.631Z,100.0
2019-01-03T12:32:10.010Z,100.0
2019-01-03T12:33:11.378Z,100.0
2019-01-03T12:34:12.749Z,100.0
2019-01-03T12:35:14.127Z,100.0
2019-01-03T12:36:15.504Z,100.0
2019-01-03T12:37:16.880Z,100.0
2019-01-03T12:38:18.256Z,100.0
2019-01-03T12:39:19.630Z,100.0
2019-01-03T12:40:21.002Z,100.0
2019-01-03T12:41:22.375Z,100.0
2019-01-03T12:42:23.747Z,100.0
2019-01-03T12:43:25.132Z,100.0
2019-01-03T12:44:26.508Z,100.0
2019-01-03T12:45:29.002Z,100.0
2019-01-03T12:46:29.231Z,100.0
2019-01-03T12:47:30.606Z,100.0
2019-01-03T12:48:32.508Z,100.0
2019-01-03T12:49:34.628Z,100.0
2019-01-03T12:50:36.774Z,100.0
2019-01-03T12:51:38.737Z,100.0
2019-01-03T12:52:40.606Z,100.0
2019-01-03T12:53:42.720Z,100.0
2019-01-03T12:54:44.814Z,100.0
2019-01-03T12:55:46.860Z,100.0
2019-01-03T12:56:48.878Z,100.0
2019-01-03T12:57:50.916Z,100.0
2019-01-03T12:58:52.903Z,100.0
2019-01-03T12:59:54.936Z,100.0
2019-01-03T13:00:56.894Z,100.0
2019-01-03T13:01:58.996Z,100.0
2019-01-03T13:03:01.107Z,100.0
2019-01-03T13:04:03.226Z,100.0
2019-01-03T13:05:05.403Z,100.0
2019-01-03T13:06:07.470Z,100.0
2019-01-03T13:07:09.418Z,100.0
2019-01-03T13:08:11.354Z,100.0
2019-01-03T13:09:13.241Z,100.0
2019-01-03T13:10:15.110Z,100.0
2019-01-03T13:11:17.035Z,100.0
2019-01-03T13:12:18.928Z,100.0
2019-01-03T13:13:20.291Z,100.0
2019-01-03T13:14:21.662Z,100.0
2019-01-03T13:15:23.027Z,100.0